sensor_id;sensor_type;location;lat;lon;timestamp;pressure;altitude;pressure_sealevel;temperature;humidity
81909;BME280;71372;43.514;1.512;2024-02-26T00:00:08;98366.91;;;8.66;85.64
81909;BME280;71372;43.514;1.512;2024-02-26T00:02:36;98367.78;;;8.66;85.56
81909;BME280;71372;43.514;1.512;2024-02-26T00:05:06;98366.81;;;8.67;85.74
81909;BME280;71372;43.514;1.512;2024-02-26T00:07:33;98370.31;;;8.68;85.45
81909;BME280;71372;43.514;1.512;2024-02-26T00:09:59;98366.72;;;8.69;86.08
81909;BME280;71372;43.514;1.512;2024-02-26T00:12:25;98366.72;;;8.69;85.55
81909;BME280;71372;43.514;1.512;2024-02-26T00:14:51;98371.44;;;8.64;85.82
81909;BME280;71372;43.514;1.512;2024-02-26T00:17:18;98358.41;;;8.61;85.12
81909;BME280;71372;43.514;1.512;2024-02-26T00:19:44;98358.41;;;8.61;85.56
81909;BME280;71372;43.514;1.512;2024-02-26T00:22:10;98362.88;;;8.60;85.61
81909;BME280;71372;43.514;1.512;2024-02-26T00:24:36;98357.66;;;8.59;85.55
81909;BME280;71372;43.514;1.512;2024-02-26T00:27:02;98340.38;;;8.53;85.62
81909;BME280;71372;43.514;1.512;2024-02-26T00:29:28;98334.63;;;8.46;86.28
81909;BME280;71372;43.514;1.512;2024-02-26T00:31:54;98329.72;;;8.40;85.54
81909;BME280;71372;43.514;1.512;2024-02-26T00:34:19;98335.34;;;8.36;85.85
81909;BME280;71372;43.514;1.512;2024-02-26T00:36:45;98320.75;;;8.29;85.47
81909;BME280;71372;43.514;1.512;2024-02-26T00:39:11;98323.72;;;8.24;86.04
81909;BME280;71372;43.514;1.512;2024-02-26T00:41:41;98320.53;;;8.19;85.49
81909;BME280;71372;43.514;1.512;2024-02-26T00:44:07;98312.25;;;8.11;85.84
81909;BME280;71372;43.514;1.512;2024-02-26T00:46:33;98313.50;;;8.05;85.66
81909;BME280;71372;43.514;1.512;2024-02-26T00:48:59;98306.06;;;7.98;85.57
81909;BME280;71372;43.514;1.512;2024-02-26T00:51:26;98307.38;;;7.90;85.47
81909;BME280;71372;43.514;1.512;2024-02-26T00:53:52;98305.91;;;7.86;86.08
81909;BME280;71372;43.514;1.512;2024-02-26T00:56:18;98311.19;;;7.86;85.89
81909;BME280;71372;43.514;1.512;2024-02-26T00:58:43;98294.16;;;7.90;85.61
81909;BME280;71372;43.514;1.512;2024-02-26T01:01:09;98280.78;;;7.92;86.28
81909;BME280;71372;43.514;1.512;2024-02-26T01:03:35;98287.72;;;7.95;85.96
81909;BME280;71372;43.514;1.512;2024-02-26T01:06:01;98299.91;;;7.97;86.18
81909;BME280;71372;43.514;1.512;2024-02-26T01:08:27;98307.53;;;8.02;85.81
81909;BME280;71372;43.514;1.512;2024-02-26T01:10:53;98295.81;;;8.06;86.03
81909;BME280;71372;43.514;1.512;2024-02-26T01:13:19;98307.16;;;8.08;86.67
81909;BME280;71372;43.514;1.512;2024-02-26T01:15:45;98298.88;;;8.12;85.96
81909;BME280;71372;43.514;1.512;2024-02-26T01:18:12;98302.38;;;8.13;86.09
81909;BME280;71372;43.514;1.512;2024-02-26T01:20:38;98306.72;;;8.14;86.58
81909;BME280;71372;43.514;1.512;2024-02-26T01:23:04;98296.97;;;8.14;86.11
81909;BME280;71372;43.514;1.512;2024-02-26T01:25:29;98293.78;;;8.09;86.24
81909;BME280;71372;43.514;1.512;2024-02-26T01:27:55;98292.59;;;8.01;85.87
81909;BME280;71372;43.514;1.512;2024-02-26T01:30:21;98290.38;;;7.95;86.06
81909;BME280;71372;43.514;1.512;2024-02-26T01:32:47;98292.44;;;7.89;86.05
81909;BME280;71372;43.514;1.512;2024-02-26T01:35:13;98288.53;;;7.82;85.80
81909;BME280;71372;43.514;1.512;2024-02-26T01:37:39;98278.31;;;7.76;86.00
81909;BME280;71372;43.514;1.512;2024-02-26T01:40:06;98280.44;;;7.71;85.89
81909;BME280;71372;43.514;1.512;2024-02-26T01:42:32;98273.72;;;7.66;86.22
81909;BME280;71372;43.514;1.512;2024-02-26T01:44:59;98278.38;;;7.62;85.57
81909;BME280;71372;43.514;1.512;2024-02-26T01:47:26;98271.66;;;7.56;85.54
81909;BME280;71372;43.514;1.512;2024-02-26T01:49:53;98282.56;;;7.52;85.55
81909;BME280;71372;43.514;1.512;2024-02-26T01:52:20;98275.88;;;7.46;85.51
81909;BME280;71372;43.514;1.512;2024-02-26T01:54:47;98274.44;;;7.41;85.52
81909;BME280;71372;43.514;1.512;2024-02-26T01:57:14;98274.84;;;7.35;85.57
81909;BME280;71372;43.514;1.512;2024-02-26T01:59:40;98272.59;;;7.28;85.63
81909;BME280;71372;43.514;1.512;2024-02-26T02:02:08;98272.88;;;7.24;85.50
81909;BME280;71372;43.514;1.512;2024-02-26T02:04:36;98266.28;;;7.17;84.99
81909;BME280;71372;43.514;1.512;2024-02-26T02:07:02;98264.78;;;7.13;84.91
81909;BME280;71372;43.514;1.512;2024-02-26T02:09:28;98268.63;;;7.07;85.14
81909;BME280;71372;43.514;1.512;2024-02-26T02:11:54;98270.72;;;7.02;85.04
81909;BME280;71372;43.514;1.512;2024-02-26T02:14:21;98262.22;;;6.97;85.33
81909;BME280;71372;43.514;1.512;2024-02-26T02:16:47;98254.69;;;6.91;84.89
81909;BME280;71372;43.514;1.512;2024-02-26T02:19:13;98258.53;;;6.85;84.99
81909;BME280;71372;43.514;1.512;2024-02-26T02:21:39;98257.88;;;6.82;84.99
81909;BME280;71372;43.514;1.512;2024-02-26T02:24:05;98270.47;;;6.78;85.31
81909;BME280;71372;43.514;1.512;2024-02-26T02:26:31;98262.72;;;6.75;85.28
81909;BME280;71372;43.514;1.512;2024-02-26T02:28:58;98255.06;;;6.70;84.95
81909;BME280;71372;43.514;1.512;2024-02-26T02:31:24;98261.47;;;6.66;85.00
81909;BME280;71372;43.514;1.512;2024-02-26T02:33:50;98260.81;;;6.63;84.89
81909;BME280;71372;43.514;1.512;2024-02-26T02:36:16;98261.28;;;6.55;85.20
81909;BME280;71372;43.514;1.512;2024-02-26T02:38:49;98242.97;;;6.52;85.47
81909;BME280;71372;43.514;1.512;2024-02-26T02:41:18;98239.75;;;6.47;85.48
81909;BME280;71372;43.514;1.512;2024-02-26T02:43:44;98237.59;;;6.39;85.37
81909;BME280;71372;43.514;1.512;2024-02-26T02:46:11;98225.47;;;6.35;85.63
81909;BME280;71372;43.514;1.512;2024-02-26T02:48:41;98240.50;;;6.35;85.33
81909;BME280;71372;43.514;1.512;2024-02-26T02:51:07;98243.13;;;6.35;85.54
81909;BME280;71372;43.514;1.512;2024-02-26T02:53:33;98240.50;;;6.35;85.46
81909;BME280;71372;43.514;1.512;2024-02-26T02:55:59;98247.47;;;6.36;85.65
81909;BME280;71372;43.514;1.512;2024-02-26T02:58:25;98241.44;;;6.34;85.97
81909;BME280;71372;43.514;1.512;2024-02-26T03:00:51;98232.56;;;6.35;85.98
81909;BME280;71372;43.514;1.512;2024-02-26T03:03:17;98228.97;;;6.36;85.54
81909;BME280;71372;43.514;1.512;2024-02-26T03:05:43;98227.19;;;6.36;86.40
81909;BME280;71372;43.514;1.512;2024-02-26T03:08:09;98232.47;;;6.36;85.90
81909;BME280;71372;43.514;1.512;2024-02-26T03:10:35;98238.69;;;6.35;85.79
81909;BME280;71372;43.514;1.512;2024-02-26T03:13:01;98241.34;;;6.35;86.35
81909;BME280;71372;43.514;1.512;2024-02-26T03:15:27;98231.63;;;6.36;86.43
81909;BME280;71372;43.514;1.512;2024-02-26T03:17:53;98245.78;;;6.35;86.17
81909;BME280;71372;43.514;1.512;2024-02-26T03:20:19;98244.84;;;6.36;85.91
81909;BME280;71372;43.514;1.512;2024-02-26T03:22:45;98244.09;;;6.34;85.63
81909;BME280;71372;43.514;1.512;2024-02-26T03:25:11;98231.16;;;6.29;86.14
81909;BME280;71372;43.514;1.512;2024-02-26T03:27:37;98226.53;;;6.33;86.63
81909;BME280;71372;43.514;1.512;2024-02-26T03:30:03;98228.88;;;6.37;86.38
81909;BME280;71372;43.514;1.512;2024-02-26T03:32:29;98224.94;;;6.44;87.11
81909;BME280;71372;43.514;1.512;2024-02-26T03:34:55;98235.41;;;6.60;87.31
81909;BME280;71372;43.514;1.512;2024-02-26T03:37:21;98236.34;;;6.73;87.59
81909;BME280;71372;43.514;1.512;2024-02-26T03:39:47;98236.53;;;6.99;87.72
81909;BME280;71372;43.514;1.512;2024-02-26T03:42:13;98231.13;;;7.15;87.50
81909;BME280;71372;43.514;1.512;2024-02-26T03:44:39;98235.63;;;7.27;87.65
81909;BME280;71372;43.514;1.512;2024-02-26T03:47:05;98235.78;;;7.38;86.60
81909;BME280;71372;43.514;1.512;2024-02-26T03:49:31;98228.13;;;7.48;86.58
81909;BME280;71372;43.514;1.512;2024-02-26T03:51:57;98227.31;;;7.60;87.18
81909;BME280;71372;43.514;1.512;2024-02-26T03:54:22;98212.09;;;7.76;86.29
81909;BME280;71372;43.514;1.512;2024-02-26T03:56:48;98214.03;;;7.87;85.95
81909;BME280;71372;43.514;1.512;2024-02-26T03:59:14;98225.81;;;7.96;85.98
81909;BME280;71372;43.514;1.512;2024-02-26T04:01:47;98230.47;;;8.05;85.69
81909;BME280;71372;43.514;1.512;2024-02-26T04:04:13;98227.22;;;8.14;85.42
81909;BME280;71372;43.514;1.512;2024-02-26T04:06:39;98234.34;;;8.26;85.37
81909;BME280;71372;43.514;1.512;2024-02-26T04:09:05;98229.69;;;8.30;84.77
81909;BME280;71372;43.514;1.512;2024-02-26T04:11:31;98230.03;;;8.38;84.44
81909;BME280;71372;43.514;1.512;2024-02-26T04:13:57;98237.03;;;8.52;84.06
81909;BME280;71372;43.514;1.512;2024-02-26T04:16:23;98233.00;;;8.59;84.45
81909;BME280;71372;43.514;1.512;2024-02-26T04:18:49;98232.59;;;8.65;84.04
81909;BME280;71372;43.514;1.512;2024-02-26T04:21:15;98224.19;;;8.71;83.96
81909;BME280;71372;43.514;1.512;2024-02-26T04:23:41;98228.13;;;8.78;82.90
81909;BME280;71372;43.514;1.512;2024-02-26T04:26:07;98226.00;;;8.83;82.91
81909;BME280;71372;43.514;1.512;2024-02-26T04:28:33;98220.47;;;8.86;82.71
81909;BME280;71372;43.514;1.512;2024-02-26T04:30:59;98228.63;;;8.96;81.57
81909;BME280;71372;43.514;1.512;2024-02-26T04:33:25;98224.69;;;9.01;82.16
81909;BME280;71372;43.514;1.512;2024-02-26T04:35:50;98215.78;;;9.02;82.89
81909;BME280;71372;43.514;1.512;2024-02-26T04:38:17;98226.38;;;9.02;82.65
81909;BME280;71372;43.514;1.512;2024-02-26T04:40:42;98215.97;;;8.99;81.44
81909;BME280;71372;43.514;1.512;2024-02-26T04:43:08;98230.84;;;9.02;82.06
81909;BME280;71372;43.514;1.512;2024-02-26T04:45:34;98228.81;;;9.05;80.78
81909;BME280;71372;43.514;1.512;2024-02-26T04:48:01;98234.84;;;9.07;81.60
81909;BME280;71372;43.514;1.512;2024-02-26T04:50:27;98234.00;;;9.07;81.67
81909;BME280;71372;43.514;1.512;2024-02-26T04:52:53;98236.66;;;9.07;81.36
81909;BME280;71372;43.514;1.512;2024-02-26T04:55:19;98229.31;;;9.11;82.13
81909;BME280;71372;43.514;1.512;2024-02-26T04:57:45;98234.22;;;9.17;81.64
81909;BME280;71372;43.514;1.512;2024-02-26T05:00:11;98243.44;;;9.24;81.81
81909;BME280;71372;43.514;1.512;2024-02-26T05:02:37;98236.41;;;9.23;81.18
81909;BME280;71372;43.514;1.512;2024-02-26T05:05:05;98255.84;;;9.23;81.43
81909;BME280;71372;43.514;1.512;2024-02-26T05:07:31;98243.44;;;9.24;81.35
81909;BME280;71372;43.514;1.512;2024-02-26T05:09:57;98240.78;;;9.24;81.87
81909;BME280;71372;43.514;1.512;2024-02-26T05:12:24;98233.56;;;9.26;81.04
81909;BME280;71372;43.514;1.512;2024-02-26T05:14:49;98239.81;;;9.25;81.43
81909;BME280;71372;43.514;1.512;2024-02-26T05:17:15;98243.94;;;9.29;80.49
81909;BME280;71372;43.514;1.512;2024-02-26T05:19:41;98238.28;;;9.33;81.06
81909;BME280;71372;43.514;1.512;2024-02-26T05:22:07;98223.19;;;9.34;80.28
81909;BME280;71372;43.514;1.512;2024-02-26T05:24:33;98242.03;;;9.31;81.22
81909;BME280;71372;43.514;1.512;2024-02-26T05:27:00;98243.09;;;9.28;80.33
81909;BME280;71372;43.514;1.512;2024-02-26T05:29:26;98235.25;;;9.27;80.32
81909;BME280;71372;43.514;1.512;2024-02-26T05:31:51;98240.34;;;9.30;79.42
81909;BME280;71372;43.514;1.512;2024-02-26T05:34:20;98236.47;;;9.34;79.70
81909;BME280;71372;43.514;1.512;2024-02-26T05:36:46;98233.50;;;9.38;80.63
81909;BME280;71372;43.514;1.512;2024-02-26T05:39:11;98229.38;;;9.34;79.47
81909;BME280;71372;43.514;1.512;2024-02-26T05:41:37;98235.88;;;9.30;80.15
81909;BME280;71372;43.514;1.512;2024-02-26T05:44:03;98231.84;;;9.25;79.87
81909;BME280;71372;43.514;1.512;2024-02-26T05:46:29;98238.44;;;9.19;79.97
81909;BME280;71372;43.514;1.512;2024-02-26T05:48:55;98237.09;;;9.14;79.30
81909;BME280;71372;43.514;1.512;2024-02-26T05:51:21;98238.06;;;9.13;80.67
81909;BME280;71372;43.514;1.512;2024-02-26T05:53:47;98248.13;;;9.07;80.70
81909;BME280;71372;43.514;1.512;2024-02-26T05:56:22;98252.09;;;9.02;80.25
81909;BME280;71372;43.514;1.512;2024-02-26T05:58:49;98253.03;;;9.01;80.75
81909;BME280;71372;43.514;1.512;2024-02-26T06:01:16;98252.63;;;8.94;80.29
81909;BME280;71372;43.514;1.512;2024-02-26T06:03:43;98250.19;;;8.91;80.71
81909;BME280;71372;43.514;1.512;2024-02-26T06:06:10;98249.34;;;8.91;79.92
81909;BME280;71372;43.514;1.512;2024-02-26T06:08:37;98247.53;;;8.91;80.42
81909;BME280;71372;43.514;1.512;2024-02-26T06:11:06;98240.19;;;8.95;80.11
81909;BME280;71372;43.514;1.512;2024-02-26T06:13:34;98241.50;;;8.89;79.47
81909;BME280;71372;43.514;1.512;2024-02-26T06:16:00;98245.84;;;8.90;79.86
81909;BME280;71372;43.514;1.512;2024-02-26T06:18:26;98254.84;;;8.88;78.89
81909;BME280;71372;43.514;1.512;2024-02-26T06:20:52;98262.50;;;8.92;79.18
81909;BME280;71372;43.514;1.512;2024-02-26T06:23:18;98252.94;;;8.90;78.95
81909;BME280;71372;43.514;1.512;2024-02-26T06:25:44;98268.66;;;8.93;80.19
81909;BME280;71372;43.514;1.512;2024-02-26T06:28:10;98260.81;;;8.91;79.69
81909;BME280;71372;43.514;1.512;2024-02-26T06:30:36;98267.69;;;8.94;79.99
81909;BME280;71372;43.514;1.512;2024-02-26T06:33:01;98278.81;;;8.86;79.84
81909;BME280;71372;43.514;1.512;2024-02-26T06:35:28;98288.47;;;8.87;80.08
81909;BME280;71372;43.514;1.512;2024-02-26T06:37:54;98282.03;;;8.78;80.22
81909;BME280;71372;43.514;1.512;2024-02-26T06:40:20;98284.81;;;8.77;80.39
81909;BME280;71372;43.514;1.512;2024-02-26T06:42:46;98301.13;;;8.71;79.89
81909;BME280;71372;43.514;1.512;2024-02-26T06:45:12;98308.47;;;8.67;80.39
81909;BME280;71372;43.514;1.512;2024-02-26T06:47:38;98304.50;;;8.60;79.34
81909;BME280;71372;43.514;1.512;2024-02-26T06:50:04;98310.88;;;8.58;80.28
81909;BME280;71372;43.514;1.512;2024-02-26T06:52:30;98314.06;;;8.63;80.50
81909;BME280;71372;43.514;1.512;2024-02-26T06:54:56;98326.56;;;8.61;79.60
81909;BME280;71372;43.514;1.512;2024-02-26T06:57:22;98324.88;;;8.60;79.56
81909;BME280;71372;43.514;1.512;2024-02-26T06:59:48;98327.44;;;8.61;79.41
81909;BME280;71372;43.514;1.512;2024-02-26T07:02:14;98330.81;;;8.63;79.58
81909;BME280;71372;43.514;1.512;2024-02-26T07:04:40;98327.88;;;8.68;79.14
81909;BME280;71372;43.514;1.512;2024-02-26T07:07:07;98319.91;;;8.68;79.15
81909;BME280;71372;43.514;1.512;2024-02-26T07:09:33;98329.34;;;8.72;78.56
81909;BME280;71372;43.514;1.512;2024-02-26T07:11:59;98328.19;;;8.76;78.23
81909;BME280;71372;43.514;1.512;2024-02-26T07:14:25;98338.38;;;8.82;78.20
81909;BME280;71372;43.514;1.512;2024-02-26T07:16:51;98334.44;;;8.88;77.97
81909;BME280;71372;43.514;1.512;2024-02-26T07:19:17;98331.16;;;8.97;77.70
81909;BME280;71372;43.514;1.512;2024-02-26T07:21:43;98336.16;;;9.01;76.87
81909;BME280;71372;43.514;1.512;2024-02-26T07:24:09;98339.13;;;9.09;77.95
81909;BME280;71372;43.514;1.512;2024-02-26T07:26:34;98343.47;;;9.11;76.99
81909;BME280;71372;43.514;1.512;2024-02-26T07:29:00;98343.78;;;9.19;77.16
81909;BME280;71372;43.514;1.512;2024-02-26T07:31:26;98350.28;;;9.27;77.31
81909;BME280;71372;43.514;1.512;2024-02-26T07:33:52;98344.84;;;9.29;76.83
81909;BME280;71372;43.514;1.512;2024-02-26T07:36:18;98358.63;;;9.34;77.14
81909;BME280;71372;43.514;1.512;2024-02-26T07:38:44;98355.91;;;9.35;76.25
81909;BME280;71372;43.514;1.512;2024-02-26T07:41:11;98349.19;;;9.43;76.57
81909;BME280;71372;43.514;1.512;2024-02-26T07:43:37;98355.88;;;9.48;75.60
81909;BME280;71372;43.514;1.512;2024-02-26T07:46:03;98357.34;;;9.52;74.82
81909;BME280;71372;43.514;1.512;2024-02-26T07:48:29;98350.31;;;9.64;75.20
81909;BME280;71372;43.514;1.512;2024-02-26T07:50:55;98347.19;;;9.70;75.76
81909;BME280;71372;43.514;1.512;2024-02-26T07:53:21;98344.09;;;9.76;75.59
81909;BME280;71372;43.514;1.512;2024-02-26T07:55:47;98351.53;;;9.84;75.98
81909;BME280;71372;43.514;1.512;2024-02-26T07:58:13;98356.38;;;9.90;75.89
81909;BME280;71372;43.514;1.512;2024-02-26T08:00:39;98367.31;;;9.98;76.11
81909;BME280;71372;43.514;1.512;2024-02-26T08:03:05;98363.81;;;9.98;74.75
81909;BME280;71372;43.514;1.512;2024-02-26T08:05:30;98356.91;;;9.95;73.48
81909;BME280;71372;43.514;1.512;2024-02-26T08:07:56;98356.97;;;10.06;74.20
81909;BME280;71372;43.514;1.512;2024-02-26T08:10:22;98358.44;;;10.10;73.08
81909;BME280;71372;43.514;1.512;2024-02-26T08:12:48;98344.44;;;10.08;72.65
81909;BME280;71372;43.514;1.512;2024-02-26T08:15:14;98345.25;;;10.21;73.21
81909;BME280;71372;43.514;1.512;2024-02-26T08:17:40;98334.13;;;10.28;73.03
81909;BME280;71372;43.514;1.512;2024-02-26T08:20:06;98341.16;;;10.29;72.70
81909;BME280;71372;43.514;1.512;2024-02-26T08:22:32;98335.63;;;10.32;72.30
81909;BME280;71372;43.514;1.512;2024-02-26T08:24:59;98340.69;;;10.35;72.17
81909;BME280;71372;43.514;1.512;2024-02-26T08:27:25;98340.63;;;10.47;73.21
81909;BME280;71372;43.514;1.512;2024-02-26T08:29:51;98341.97;;;10.53;72.56
81909;BME280;71372;43.514;1.512;2024-02-26T08:32:17;98346.09;;;10.57;70.72
81909;BME280;71372;43.514;1.512;2024-02-26T08:34:43;98349.13;;;10.64;72.76
81909;BME280;71372;43.514;1.512;2024-02-26T08:37:09;98346.59;;;10.62;70.92
81909;BME280;71372;43.514;1.512;2024-02-26T08:39:35;98354.09;;;10.57;68.16
81909;BME280;71372;43.514;1.512;2024-02-26T08:42:01;98350.13;;;10.74;70.54
81909;BME280;71372;43.514;1.512;2024-02-26T08:44:27;98359.13;;;10.84;70.42
81909;BME280;71372;43.514;1.512;2024-02-26T08:46:53;98367.00;;;10.86;68.83
81909;BME280;71372;43.514;1.512;2024-02-26T08:49:20;98372.34;;;10.97;69.75
81909;BME280;71372;43.514;1.512;2024-02-26T08:51:48;98362.66;;;10.96;69.00
81909;BME280;71372;43.514;1.512;2024-02-26T08:54:14;98362.41;;;10.99;66.40
81909;BME280;71372;43.514;1.512;2024-02-26T08:56:40;98357.81;;;11.12;68.39
81909;BME280;71372;43.514;1.512;2024-02-26T08:59:06;98364.13;;;11.22;68.59
81909;BME280;71372;43.514;1.512;2024-02-26T09:01:32;98362.44;;;11.21;65.88
81909;BME280;71372;43.514;1.512;2024-02-26T09:03:58;98359.66;;;11.23;66.58
81909;BME280;71372;43.514;1.512;2024-02-26T09:06:24;98364.28;;;11.32;66.71
81909;BME280;71372;43.514;1.512;2024-02-26T09:08:50;98362.72;;;11.40;66.97
81909;BME280;71372;43.514;1.512;2024-02-26T09:11:16;98375.78;;;11.55;67.18
81909;BME280;71372;43.514;1.512;2024-02-26T09:13:42;98377.97;;;11.50;64.40
81909;BME280;71372;43.514;1.512;2024-02-26T09:16:08;98376.88;;;11.52;64.56
81909;BME280;71372;43.514;1.512;2024-02-26T09:18:34;98375.06;;;11.64;65.62
81909;BME280;71372;43.514;1.512;2024-02-26T09:21:04;98387.41;;;11.65;63.89
81909;BME280;71372;43.514;1.512;2024-02-26T09:23:30;98382.09;;;11.65;63.61
81909;BME280;71372;43.514;1.512;2024-02-26T09:25:56;98382.56;;;11.70;63.80
81909;BME280;71372;43.514;1.512;2024-02-26T09:28:22;98375.56;;;11.80;64.63
81909;BME280;71372;43.514;1.512;2024-02-26T09:30:48;98372.88;;;11.91;64.05
81909;BME280;71372;43.514;1.512;2024-02-26T09:33:15;98376.63;;;12.00;64.11
81909;BME280;71372;43.514;1.512;2024-02-26T09:35:41;98378.44;;;11.99;61.70
81909;BME280;71372;43.514;1.512;2024-02-26T09:38:07;98384.63;;;12.00;61.88
81909;BME280;71372;43.514;1.512;2024-02-26T09:40:33;98381.56;;;12.16;63.00
81909;BME280;71372;43.514;1.512;2024-02-26T09:43:00;98385.47;;;12.12;61.27
81909;BME280;71372;43.514;1.512;2024-02-26T09:45:28;98381.06;;;12.22;61.55
81909;BME280;71372;43.514;1.512;2024-02-26T09:47:55;98382.00;;;12.32;62.48
81909;BME280;71372;43.514;1.512;2024-02-26T09:50:22;98368.38;;;12.46;62.75
81909;BME280;71372;43.514;1.512;2024-02-26T09:52:49;98367.63;;;12.55;62.02
81909;BME280;71372;43.514;1.512;2024-02-26T09:55:15;98362.72;;;12.61;62.29
81909;BME280;71372;43.514;1.512;2024-02-26T09:57:48;98356.84;;;12.67;60.98
81909;BME280;71372;43.514;1.512;2024-02-26T10:00:21;98361.97;;;12.70;60.37
81909;BME280;71372;43.514;1.512;2024-02-26T10:02:48;98355.75;;;12.90;62.60
81909;BME280;71372;43.514;1.512;2024-02-26T10:05:18;98355.75;;;12.90;60.42
81909;BME280;71372;43.514;1.512;2024-02-26T10:07:47;98354.75;;;13.02;61.52
81909;BME280;71372;43.514;1.512;2024-02-26T10:10:14;98351.88;;;12.94;60.23
81909;BME280;71372;43.514;1.512;2024-02-26T10:12:40;98347.50;;;12.93;60.18
81909;BME280;71372;43.514;1.512;2024-02-26T10:15:06;98348.50;;;12.92;59.31
81909;BME280;71372;43.514;1.512;2024-02-26T10:17:32;98352.31;;;12.99;59.38
81909;BME280;71372;43.514;1.512;2024-02-26T10:20:14;98351.09;;;13.03;57.97
81909;BME280;71372;43.514;1.512;2024-02-26T10:22:44;98348.22;;;12.95;57.89
81909;BME280;71372;43.514;1.512;2024-02-26T10:25:10;98343.66;;;13.07;58.59
81909;BME280;71372;43.514;1.512;2024-02-26T10:27:36;98344.69;;;13.15;57.96
81909;BME280;71372;43.514;1.512;2024-02-26T10:30:04;98343.91;;;13.04;57.10
81909;BME280;71372;43.514;1.512;2024-02-26T10:32:32;98350.28;;;13.12;57.16
81909;BME280;71372;43.514;1.512;2024-02-26T10:34:58;98334.47;;;13.21;57.60
81909;BME280;71372;43.514;1.512;2024-02-26T10:37:24;98342.13;;;13.35;58.50
81909;BME280;71372;43.514;1.512;2024-02-26T10:39:50;98332.50;;;13.23;56.11
81909;BME280;71372;43.514;1.512;2024-02-26T10:42:16;98344.94;;;13.12;54.01
81909;BME280;71372;43.514;1.512;2024-02-26T10:44:45;98344.66;;;13.36;57.05
81909;BME280;71372;43.514;1.512;2024-02-26T10:47:12;98347.22;;;13.38;56.69
81909;BME280;71372;43.514;1.512;2024-02-26T10:49:38;98338.66;;;13.44;56.18
81909;BME280;71372;43.514;1.512;2024-02-26T10:52:11;98342.22;;;13.54;56.43
81909;BME280;71372;43.514;1.512;2024-02-26T10:54:39;98349.06;;;13.47;55.11
81909;BME280;71372;43.514;1.512;2024-02-26T10:57:08;98342.38;;;13.53;55.20
81909;BME280;71372;43.514;1.512;2024-02-26T10:59:35;98340.59;;;13.72;56.68
81909;BME280;71372;43.514;1.512;2024-02-26T11:02:02;98353.97;;;13.72;55.47
81909;BME280;71372;43.514;1.512;2024-02-26T11:04:29;98350.47;;;13.82;55.26
81909;BME280;71372;43.514;1.512;2024-02-26T11:06:57;98348.16;;;13.98;54.91
81909;BME280;71372;43.514;1.512;2024-02-26T11:09:24;98343.63;;;14.08;56.53
81909;BME280;71372;43.514;1.512;2024-02-26T11:11:50;98344.34;;;14.20;56.88
81909;BME280;71372;43.514;1.512;2024-02-26T11:14:20;98337.75;;;14.24;54.85
81909;BME280;71372;43.514;1.512;2024-02-26T11:16:47;98343.88;;;14.45;55.61
81909;BME280;71372;43.514;1.512;2024-02-26T11:19:15;98348.06;;;14.67;55.73
81909;BME280;71372;43.514;1.512;2024-02-26T11:21:41;98339.47;;;14.63;53.81
81909;BME280;71372;43.514;1.512;2024-02-26T11:24:11;98352.72;;;14.55;52.65
81909;BME280;71372;43.514;1.512;2024-02-26T11:26:59;98345.41;;;14.67;52.93
81909;BME280;71372;43.514;1.512;2024-02-26T11:29:51;98338.34;;;14.66;52.68
81909;BME280;71372;43.514;1.512;2024-02-26T11:32:15;98334.38;;;14.89;53.74
81909;BME280;71372;43.514;1.512;2024-02-26T11:34:42;98341.88;;;14.67;51.38
81909;BME280;71372;43.514;1.512;2024-02-26T11:37:13;98337.75;;;14.43;51.39
81909;BME280;71372;43.514;1.512;2024-02-26T11:39:43;98339.03;;;14.29;51.25
81909;BME280;71372;43.514;1.512;2024-02-26T11:42:16;98330.72;;;14.32;52.11
81909;BME280;71372;43.514;1.512;2024-02-26T11:44:42;98321.69;;;14.14;50.88
81909;BME280;71372;43.514;1.512;2024-02-26T11:47:19;98321.97;;;14.11;51.62
81909;BME280;71372;43.514;1.512;2024-02-26T11:49:46;98321.41;;;14.17;53.19
81909;BME280;71372;43.514;1.512;2024-02-26T11:52:13;98313.25;;;14.28;52.53
81909;BME280;71372;43.514;1.512;2024-02-26T11:57:27;98308.03;;;14.37;50.21
81909;BME280;71372;43.514;1.512;2024-02-26T12:02:44;98291.41;;;14.81;51.82
81909;BME280;71372;43.514;1.512;2024-02-26T12:05:14;98296.16;;;14.97;51.95
81909;BME280;71372;43.514;1.512;2024-02-26T12:07:46;98284.28;;;15.00;51.88
81909;BME280;71372;43.514;1.512;2024-02-26T12:13:13;98263.63;;;14.82;50.70
81909;BME280;71372;43.514;1.512;2024-02-26T12:15:59;98257.13;;;14.75;50.04
81909;BME280;71372;43.514;1.512;2024-02-26T12:18:26;98243.38;;;14.60;50.66
81909;BME280;71372;43.514;1.512;2024-02-26T12:21:02;98250.69;;;14.68;49.58
81909;BME280;71372;43.514;1.512;2024-02-26T12:23:29;98246.28;;;14.77;50.71
81909;BME280;71372;43.514;1.512;2024-02-26T12:25:59;98240.19;;;14.84;50.28
81909;BME280;71372;43.514;1.512;2024-02-26T12:28:29;98239.16;;;15.05;51.55
81909;BME280;71372;43.514;1.512;2024-02-26T12:30:55;98234.66;;;15.05;51.13
81909;BME280;71372;43.514;1.512;2024-02-26T12:33:21;98227.84;;;15.11;50.76
81909;BME280;71372;43.514;1.512;2024-02-26T12:35:47;98228.28;;;15.06;50.42
81909;BME280;71372;43.514;1.512;2024-02-26T12:38:15;98219.78;;;15.11;50.75
81909;BME280;71372;43.514;1.512;2024-02-26T12:40:41;98214.13;;;15.14;49.96
81909;BME280;71372;43.514;1.512;2024-02-26T12:43:07;98208.25;;;15.01;49.45
81909;BME280;71372;43.514;1.512;2024-02-26T12:45:41;98202.88;;;15.10;49.86
81909;BME280;71372;43.514;1.512;2024-02-26T12:48:08;98206.59;;;15.27;50.69
81909;BME280;71372;43.514;1.512;2024-02-26T12:50:34;98218.06;;;15.19;49.38
81909;BME280;71372;43.514;1.512;2024-02-26T12:53:00;98212.44;;;15.13;47.76
81909;BME280;71372;43.514;1.512;2024-02-26T12:55:27;98204.34;;;15.23;49.51
81909;BME280;71372;43.514;1.512;2024-02-26T12:57:53;98195.66;;;15.38;50.44
81909;BME280;71372;43.514;1.512;2024-02-26T13:00:25;98201.66;;;15.50;49.83
81909;BME280;71372;43.514;1.512;2024-02-26T13:02:52;98193.50;;;15.52;49.06
81909;BME280;71372;43.514;1.512;2024-02-26T13:05:21;98197.53;;;15.56;50.22
81909;BME280;71372;43.514;1.512;2024-02-26T13:07:48;98201.22;;;15.55;49.06
81909;BME280;71372;43.514;1.512;2024-02-26T13:10:15;98193.19;;;15.55;50.00
81909;BME280;71372;43.514;1.512;2024-02-26T13:12:44;98189.66;;;15.54;49.86